Peshawar Weather



Peshawar's Current Weather

Temprature 40.08o few clouds

few clouds

Rain: 0 %

Min Temprature40.08o
Max Temprature40.08o
Humidity35
Wind Speed3.09 m/h
Sun Rise05:19:11
Sun Set19:20:52
Current Time: 24-Jul-2021 15:23:57
Lat/Lon: 34.008, 71.5785




Peshawar's Geo Location



Peshawar's Weather Forecast

Time Overall Temp Min Temp Max Temp Humidity Wind Speed Rain
24-Jul-2021 (Sat)
17:00:00 few clouds 40.820 40.820 42.290 29 2.01 m/h 0 %
20:00:00 clear sky 40.190 40.190 40.240 26 2.39 m/h 0 %
23:00:00 clear sky 38.240 38.240 38.240 26 0.65 m/h 0 %
25-Jul-2021 (Sun)
02:00:00 clear sky 35.910 35.910 35.910 31 1.75 m/h 0 %
05:00:00 clear sky 34.320 34.320 34.320 35 2.13 m/h 0 %
08:00:00 broken clouds 35.910 35.910 35.910 32 2.01 m/h 0 %
11:00:00 broken clouds 39.790 39.790 39.790 25 0.59 m/h 0 %
14:00:00 scattered clouds 42.950 42.950 42.950 20 0.6 m/h 0 %
17:00:00 few clouds 43.970 43.970 43.970 18 2.2 m/h 0 %
20:00:00 clear sky 41.720 41.720 41.720 22 3.05 m/h 0 %
23:00:00 clear sky 39.820 39.820 39.820 25 0.85 m/h 0 %
26-Jul-2021 (Mon)
02:00:00 clear sky 37.120 37.120 37.120 31 2.13 m/h 0 %
05:00:00 few clouds 34.840 34.840 34.840 47 2.45 m/h 0 %
08:00:00 broken clouds 36.330 36.330 36.330 45 1.76 m/h 0 %
11:00:00 scattered clouds 40.030 40.030 40.030 33 0.6 m/h 0 %
14:00:00 clear sky 43.100 43.100 43.100 25 1.37 m/h 0 %
17:00:00 clear sky 44.070 44.070 44.070 23 3.39 m/h 0 %
20:00:00 clear sky 42.020 42.020 42.020 27 3.14 m/h 0 %
23:00:00 scattered clouds 39.960 39.960 39.960 33 2.93 m/h 0 %
27-Jul-2021 (Tue)
02:00:00 scattered clouds 36.310 36.310 36.310 47 0.38 m/h 0 %
05:00:00 scattered clouds 34.170 34.170 34.170 56 2.71 m/h 0 %
08:00:00 clear sky 34.910 34.910 34.910 54 2.05 m/h 0 %
11:00:00 few clouds 38.810 38.810 38.810 41 0.4 m/h 0 %
14:00:00 few clouds 42.580 42.580 42.580 29 3.35 m/h 0 %
17:00:00 clear sky 42.800 42.800 42.800 29 5.36 m/h 0 %
20:00:00 broken clouds 40.550 40.550 40.550 33 6.18 m/h 0 %
23:00:00 broken clouds 35.910 35.910 35.910 48 5.95 m/h 0 %
28-Jul-2021 (Wed)
02:00:00 light rain 32.970 32.970 32.970 58 2.51 m/h 11 %
05:00:00 light rain 30.840 30.840 30.840 66 3.75 m/h 30 %
08:00:00 light rain 30.880 30.880 30.880 66 2.89 m/h 20 %
11:00:00 light rain 31.550 31.550 31.550 64 2.01 m/h 21 %
14:00:00 light rain 32.790 32.790 32.790 59 3.9 m/h 21 %
17:00:00 light rain 31.730 31.730 31.730 63 5.69 m/h 36 %
20:00:00 light rain 29.730 29.730 29.730 71 3.56 m/h 143 %
23:00:00 light rain 28.710 28.710 28.710 74 1.95 m/h 151 %
29-Jul-2021 (Thu)
02:00:00 light rain 27.440 27.440 27.440 79 3.53 m/h 37 %
05:00:00 light rain 26.620 26.620 26.620 84 2.69 m/h 175 %
08:00:00 light rain 26.850 26.850 26.850 83 2.74 m/h 71 %
11:00:00 light rain 27.780 27.780 27.780 78 2.09 m/h 32 %
14:00:00 broken clouds 32.680 32.680 32.680 56 0.07 m/h 0 %

Famous Cities (60)